sensor_id;sensor_type;location;lat;lon;timestamp;pressure;altitude;pressure_sealevel;temperature
71640;BMP280;60912;48.968;10.124;2023-06-14T00:00:43;96217.56;;;13.93
71640;BMP280;60912;48.968;10.124;2023-06-14T00:03:10;96222.56;;;14.04
71640;BMP280;60912;48.968;10.124;2023-06-14T00:05:37;96222.88;;;14.08
71640;BMP280;60912;48.968;10.124;2023-06-14T00:08:09;96224.03;;;14.05
71640;BMP280;60912;48.968;10.124;2023-06-14T00:10:35;96231.94;;;14.08
71640;BMP280;60912;48.968;10.124;2023-06-14T00:13:04;96225.66;;;14.08
71640;BMP280;60912;48.968;10.124;2023-06-14T00:15:31;96220.84;;;14.08
71640;BMP280;60912;48.968;10.124;2023-06-14T00:18:00;96223.72;;;14.01
71640;BMP280;60912;48.968;10.124;2023-06-14T00:20:29;96212.78;;;13.93
71640;BMP280;60912;48.968;10.124;2023-06-14T00:22:56;96212.25;;;13.77
71640;BMP280;60912;48.968;10.124;2023-06-14T00:25:22;96208.69;;;13.67
71640;BMP280;60912;48.968;10.124;2023-06-14T00:27:50;96212.75;;;13.66
71640;BMP280;60912;48.968;10.124;2023-06-14T00:30:16;96203.25;;;13.60
71640;BMP280;60912;48.968;10.124;2023-06-14T00:32:41;96211.16;;;13.46
71640;BMP280;60912;48.968;10.124;2023-06-14T00:35:08;96209.78;;;13.38
71640;BMP280;60912;48.968;10.124;2023-06-14T00:37:34;96213.72;;;13.34
71640;BMP280;60912;48.968;10.124;2023-06-14T00:39:59;96214.28;;;13.33
71640;BMP280;60912;48.968;10.124;2023-06-14T00:42:26;96212.06;;;13.31
71640;BMP280;60912;48.968;10.124;2023-06-14T00:44:51;96209.44;;;13.24
71640;BMP280;60912;48.968;10.124;2023-06-14T00:47:17;96214.59;;;13.20
71640;BMP280;60912;48.968;10.124;2023-06-14T00:49:44;96208.28;;;13.27
71640;BMP280;60912;48.968;10.124;2023-06-14T00:52:10;96205.84;;;13.31
71640;BMP280;60912;48.968;10.124;2023-06-14T00:54:39;96217.06;;;13.16
71640;BMP280;60912;48.968;10.124;2023-06-14T00:57:05;96218.53;;;13.17
71640;BMP280;60912;48.968;10.124;2023-06-14T00:59:31;96210.31;;;13.09
71640;BMP280;60912;48.968;10.124;2023-06-14T01:01:56;96209.81;;;13.03
71640;BMP280;60912;48.968;10.124;2023-06-14T01:04:22;96218.69;;;13.02
71640;BMP280;60912;48.968;10.124;2023-06-14T01:10:06;96219.66;;;13.14
71640;BMP280;60912;48.968;10.124;2023-06-14T01:12:31;96218.03;;;12.94
71640;BMP280;60912;48.968;10.124;2023-06-14T01:15:01;96214.53;;;12.93
71640;BMP280;60912;48.968;10.124;2023-06-14T01:17:28;96217.44;;;12.78
71640;BMP280;60912;48.968;10.124;2023-06-14T01:19:58;96215.75;;;12.82
71640;BMP280;60912;48.968;10.124;2023-06-14T01:22:28;96221.91;;;12.73
71640;BMP280;60912;48.968;10.124;2023-06-14T01:24:54;96211.50;;;12.81
71640;BMP280;60912;48.968;10.124;2023-06-14T01:27:23;96203.38;;;12.83
71640;BMP280;60912;48.968;10.124;2023-06-14T01:29:51;96218.09;;;12.86
71640;BMP280;60912;48.968;10.124;2023-06-14T01:32:17;96212.19;;;12.90
71640;BMP280;60912;48.968;10.124;2023-06-14T01:34:43;96214.09;;;12.79
71640;BMP280;60912;48.968;10.124;2023-06-14T01:37:10;96213.09;;;12.67
71640;BMP280;60912;48.968;10.124;2023-06-14T01:39:36;96206.06;;;12.74
71640;BMP280;60912;48.968;10.124;2023-06-14T01:42:01;96199.41;;;12.77
71640;BMP280;60912;48.968;10.124;2023-06-14T01:44:27;96207.41;;;12.65
71640;BMP280;60912;48.968;10.124;2023-06-14T01:46:54;96203.63;;;12.53
71640;BMP280;60912;48.968;10.124;2023-06-14T01:49:20;96205.00;;;12.44
71640;BMP280;60912;48.968;10.124;2023-06-14T01:51:45;96203.50;;;12.51
71640;BMP280;60912;48.968;10.124;2023-06-14T01:54:11;96201.06;;;12.55
71640;BMP280;60912;48.968;10.124;2023-06-14T01:56:36;96204.84;;;12.42
71640;BMP280;60912;48.968;10.124;2023-06-14T01:59:01;96204.19;;;12.34
71640;BMP280;60912;48.968;10.124;2023-06-14T02:01:26;96206.81;;;12.25
71640;BMP280;60912;48.968;10.124;2023-06-14T02:03:52;96208.50;;;12.20
71640;BMP280;60912;48.968;10.124;2023-06-14T02:06:18;96203.53;;;12.19
71640;BMP280;60912;48.968;10.124;2023-06-14T02:08:44;96209.94;;;12.29
71640;BMP280;60912;48.968;10.124;2023-06-14T02:11:10;96216.06;;;12.20
71640;BMP280;60912;48.968;10.124;2023-06-14T02:13:35;96211.56;;;12.07
71640;BMP280;60912;48.968;10.124;2023-06-14T02:16:01;96214.78;;;12.21
71640;BMP280;60912;48.968;10.124;2023-06-14T02:18:26;96217.53;;;12.21
71640;BMP280;60912;48.968;10.124;2023-06-14T02:20:52;96218.28;;;12.21
71640;BMP280;60912;48.968;10.124;2023-06-14T02:23:18;96213.66;;;12.24
71640;BMP280;60912;48.968;10.124;2023-06-14T02:25:43;96209.19;;;12.28
71640;BMP280;60912;48.968;10.124;2023-06-14T02:28:10;96210.44;;;12.35
71640;BMP280;60912;48.968;10.124;2023-06-14T02:30:35;96208.97;;;12.34
71640;BMP280;60912;48.968;10.124;2023-06-14T02:33:01;96206.88;;;12.42
71640;BMP280;60912;48.968;10.124;2023-06-14T02:35:27;96202.03;;;12.25
71640;BMP280;60912;48.968;10.124;2023-06-14T02:37:53;96213.66;;;12.24
71640;BMP280;60912;48.968;10.124;2023-06-14T02:40:19;96204.06;;;12.25
71640;BMP280;60912;48.968;10.124;2023-06-14T02:42:45;96201.91;;;12.16
71640;BMP280;60912;48.968;10.124;2023-06-14T02:45:10;96208.84;;;12.00
71640;BMP280;60912;48.968;10.124;2023-06-14T02:47:36;96199.84;;;11.91
71640;BMP280;60912;48.968;10.124;2023-06-14T02:50:01;96208.47;;;11.95
71640;BMP280;60912;48.968;10.124;2023-06-14T02:52:28;96212.91;;;11.98
71640;BMP280;60912;48.968;10.124;2023-06-14T02:54:54;96205.22;;;12.14
71640;BMP280;60912;48.968;10.124;2023-06-14T02:57:20;96194.19;;;12.14
71640;BMP280;60912;48.968;10.124;2023-06-14T02:59:45;96199.59;;;12.05
71640;BMP280;60912;48.968;10.124;2023-06-14T03:02:11;96207.03;;;11.94
71640;BMP280;60912;48.968;10.124;2023-06-14T03:04:36;96204.28;;;11.94
71640;BMP280;60912;48.968;10.124;2023-06-14T03:07:04;96202.91;;;12.03
71640;BMP280;60912;48.968;10.124;2023-06-14T03:09:35;96209.88;;;12.12
71640;BMP280;60912;48.968;10.124;2023-06-14T03:12:02;96197.84;;;11.92
71640;BMP280;60912;48.968;10.124;2023-06-14T03:14:28;96206.50;;;11.88
71640;BMP280;60912;48.968;10.124;2023-06-14T03:16:56;96202.97;;;11.95
71640;BMP280;60912;48.968;10.124;2023-06-14T03:19:22;96211.31;;;11.88
71640;BMP280;60912;48.968;10.124;2023-06-14T03:21:48;96219.78;;;11.82
71640;BMP280;60912;48.968;10.124;2023-06-14T03:24:14;96222.38;;;11.88
71640;BMP280;60912;48.968;10.124;2023-06-14T03:26:41;96221.47;;;11.78
71640;BMP280;60912;48.968;10.124;2023-06-14T03:29:07;96219.69;;;11.73
71640;BMP280;60912;48.968;10.124;2023-06-14T03:31:34;96226.53;;;11.57
71640;BMP280;60912;48.968;10.124;2023-06-14T03:34:00;96225.22;;;11.65
71640;BMP280;60912;48.968;10.124;2023-06-14T03:36:25;96232.91;;;11.74
71640;BMP280;60912;48.968;10.124;2023-06-14T03:38:51;96235.22;;;12.18
71640;BMP280;60912;48.968;10.124;2023-06-14T03:41:16;96235.78;;;12.66
71640;BMP280;60912;48.968;10.124;2023-06-14T03:43:41;96241.47;;;13.27
71640;BMP280;60912;48.968;10.124;2023-06-14T03:46:07;96239.56;;;13.64
71640;BMP280;60912;48.968;10.124;2023-06-14T03:48:32;96232.72;;;14.18
71640;BMP280;60912;48.968;10.124;2023-06-14T03:50:58;96243.09;;;14.64
71640;BMP280;60912;48.968;10.124;2023-06-14T03:53:23;96242.41;;;15.21
71640;BMP280;60912;48.968;10.124;2023-06-14T03:55:49;96240.97;;;15.39
71640;BMP280;60912;48.968;10.124;2023-06-14T03:58:17;96239.69;;;15.90
71640;BMP280;60912;48.968;10.124;2023-06-14T04:00:42;96248.00;;;16.40
71640;BMP280;60912;48.968;10.124;2023-06-14T04:03:08;96242.22;;;16.79
71640;BMP280;60912;48.968;10.124;2023-06-14T04:05:33;96250.94;;;17.72
71640;BMP280;60912;48.968;10.124;2023-06-14T04:07:59;96246.34;;;19.17
71640;BMP280;60912;48.968;10.124;2023-06-14T04:10:25;96249.09;;;20.20
71640;BMP280;60912;48.968;10.124;2023-06-14T04:12:51;96245.63;;;20.49
71640;BMP280;60912;48.968;10.124;2023-06-14T04:15:17;96248.84;;;20.71
71640;BMP280;60912;48.968;10.124;2023-06-14T04:17:42;96251.34;;;21.08
71640;BMP280;60912;48.968;10.124;2023-06-14T04:20:08;96251.41;;;21.39
71640;BMP280;60912;48.968;10.124;2023-06-14T04:22:34;96259.44;;;22.23
71640;BMP280;60912;48.968;10.124;2023-06-14T04:25:01;96256.44;;;23.95
71640;BMP280;60912;48.968;10.124;2023-06-14T04:27:27;96249.41;;;24.99
71640;BMP280;60912;48.968;10.124;2023-06-14T04:29:54;96258.50;;;24.54
71640;BMP280;60912;48.968;10.124;2023-06-14T04:32:28;96255.50;;;24.28
71640;BMP280;60912;48.968;10.124;2023-06-14T04:35:05;96260.97;;;24.85
71640;BMP280;60912;48.968;10.124;2023-06-14T04:37:31;96255.94;;;25.51
71640;BMP280;60912;48.968;10.124;2023-06-14T04:39:57;96256.13;;;26.61
71640;BMP280;60912;48.968;10.124;2023-06-14T04:42:24;96260.84;;;27.44
71640;BMP280;60912;48.968;10.124;2023-06-14T04:44:51;96263.97;;;28.72
71640;BMP280;60912;48.968;10.124;2023-06-14T04:47:16;96257.91;;;30.01
71640;BMP280;60912;48.968;10.124;2023-06-14T04:49:42;96258.69;;;30.98
71640;BMP280;60912;48.968;10.124;2023-06-14T04:52:08;96258.53;;;30.75
71640;BMP280;60912;48.968;10.124;2023-06-14T04:54:39;96263.09;;;31.21
71640;BMP280;60912;48.968;10.124;2023-06-14T04:57:08;96261.97;;;32.10
71640;BMP280;60912;48.968;10.124;2023-06-14T04:59:34;96265.56;;;32.11
71640;BMP280;60912;48.968;10.124;2023-06-14T05:02:01;96262.56;;;31.61
71640;BMP280;60912;48.968;10.124;2023-06-14T05:04:26;96270.31;;;31.44
71640;BMP280;60912;48.968;10.124;2023-06-14T05:06:53;96277.66;;;32.11
71640;BMP280;60912;48.968;10.124;2023-06-14T05:09:20;96276.28;;;32.35
71640;BMP280;60912;48.968;10.124;2023-06-14T05:11:46;96274.81;;;32.36
71640;BMP280;60912;48.968;10.124;2023-06-14T05:14:13;96270.38;;;31.58
71640;BMP280;60912;48.968;10.124;2023-06-14T05:16:39;96278.91;;;31.48
71640;BMP280;60912;48.968;10.124;2023-06-14T05:19:04;96273.22;;;31.52
71640;BMP280;60912;48.968;10.124;2023-06-14T05:21:30;96280.09;;;30.21
71640;BMP280;60912;48.968;10.124;2023-06-14T05:23:57;96277.78;;;30.81
71640;BMP280;60912;48.968;10.124;2023-06-14T05:26:22;96277.28;;;30.23
71640;BMP280;60912;48.968;10.124;2023-06-14T05:28:56;96284.22;;;30.86
71640;BMP280;60912;48.968;10.124;2023-06-14T05:31:24;96290.69;;;30.12
71640;BMP280;60912;48.968;10.124;2023-06-14T05:33:51;96288.91;;;30.47
71640;BMP280;60912;48.968;10.124;2023-06-14T05:36:16;96294.97;;;30.17
71640;BMP280;60912;48.968;10.124;2023-06-14T05:38:41;96300.44;;;28.91
71640;BMP280;60912;48.968;10.124;2023-06-14T05:41:07;96303.09;;;28.37
71640;BMP280;60912;48.968;10.124;2023-06-14T05:43:32;96306.88;;;27.13
71640;BMP280;60912;48.968;10.124;2023-06-14T05:45:57;96302.03;;;27.49
71640;BMP280;60912;48.968;10.124;2023-06-14T05:48:23;96316.19;;;27.19
71640;BMP280;60912;48.968;10.124;2023-06-14T05:50:48;96309.44;;;27.64
71640;BMP280;60912;48.968;10.124;2023-06-14T05:53:14;96308.59;;;28.29
71640;BMP280;60912;48.968;10.124;2023-06-14T05:55:39;96310.72;;;28.29
71640;BMP280;60912;48.968;10.124;2023-06-14T05:58:05;96302.22;;;27.93
71640;BMP280;60912;48.968;10.124;2023-06-14T06:00:30;96311.50;;;27.95
71640;BMP280;60912;48.968;10.124;2023-06-14T06:02:56;96310.28;;;27.71
71640;BMP280;60912;48.968;10.124;2023-06-14T06:05:23;96309.69;;;27.13
71640;BMP280;60912;48.968;10.124;2023-06-14T06:07:48;96315.59;;;25.65
71640;BMP280;60912;48.968;10.124;2023-06-14T06:10:14;96311.69;;;25.07
71640;BMP280;60912;48.968;10.124;2023-06-14T06:12:41;96312.31;;;25.72
71640;BMP280;60912;48.968;10.124;2023-06-14T06:15:07;96315.41;;;24.70
71640;BMP280;60912;48.968;10.124;2023-06-14T06:17:33;96311.47;;;24.79
71640;BMP280;60912;48.968;10.124;2023-06-14T06:19:58;96314.84;;;23.95
71640;BMP280;60912;48.968;10.124;2023-06-14T06:22:24;96321.34;;;23.99
71640;BMP280;60912;48.968;10.124;2023-06-14T06:24:49;96326.16;;;23.24
71640;BMP280;60912;48.968;10.124;2023-06-14T06:27:15;96321.03;;;23.19
71640;BMP280;60912;48.968;10.124;2023-06-14T06:29:42;96328.34;;;23.98
71640;BMP280;60912;48.968;10.124;2023-06-14T06:32:08;96320.41;;;24.52
71640;BMP280;60912;48.968;10.124;2023-06-14T06:34:34;96326.81;;;24.74
71640;BMP280;60912;48.968;10.124;2023-06-14T06:37:00;96331.16;;;24.38
71640;BMP280;60912;48.968;10.124;2023-06-14T06:39:26;96320.81;;;24.23
71640;BMP280;60912;48.968;10.124;2023-06-14T06:41:51;96323.47;;;25.01
71640;BMP280;60912;48.968;10.124;2023-06-14T06:44:17;96331.88;;;25.21
71640;BMP280;60912;48.968;10.124;2023-06-14T06:46:43;96320.53;;;24.97
71640;BMP280;60912;48.968;10.124;2023-06-14T06:49:09;96327.34;;;24.90
71640;BMP280;60912;48.968;10.124;2023-06-14T06:51:41;96332.00;;;25.03
71640;BMP280;60912;48.968;10.124;2023-06-14T06:54:07;96334.31;;;24.87
71640;BMP280;60912;48.968;10.124;2023-06-14T06:56:33;96338.69;;;24.31
71640;BMP280;60912;48.968;10.124;2023-06-14T06:58:58;96338.00;;;23.93
71640;BMP280;60912;48.968;10.124;2023-06-14T07:01:24;96339.28;;;23.18
71640;BMP280;60912;48.968;10.124;2023-06-14T07:03:51;96343.78;;;23.60
71640;BMP280;60912;48.968;10.124;2023-06-14T07:06:17;96345.81;;;23.77
71640;BMP280;60912;48.968;10.124;2023-06-14T07:08:45;96351.00;;;23.30
71640;BMP280;60912;48.968;10.124;2023-06-14T07:11:11;96345.06;;;23.57
71640;BMP280;60912;48.968;10.124;2023-06-14T07:13:37;96356.97;;;24.10
71640;BMP280;60912;48.968;10.124;2023-06-14T07:16:04;96338.41;;;24.62
71640;BMP280;60912;48.968;10.124;2023-06-14T07:18:29;96341.34;;;25.29
71640;BMP280;60912;48.968;10.124;2023-06-14T07:20:56;96352.63;;;25.75
71640;BMP280;60912;48.968;10.124;2023-06-14T07:23:22;96344.91;;;26.01
71640;BMP280;60912;48.968;10.124;2023-06-14T07:25:48;96348.03;;;26.11
71640;BMP280;60912;48.968;10.124;2023-06-14T07:28:14;96352.88;;;25.83
71640;BMP280;60912;48.968;10.124;2023-06-14T07:30:39;96358.34;;;24.90
71640;BMP280;60912;48.968;10.124;2023-06-14T07:33:05;96358.78;;;24.61
71640;BMP280;60912;48.968;10.124;2023-06-14T07:35:31;96349.25;;;24.92
71640;BMP280;60912;48.968;10.124;2023-06-14T07:37:56;96356.88;;;25.30
71640;BMP280;60912;48.968;10.124;2023-06-14T07:40:21;96365.53;;;25.36
71640;BMP280;60912;48.968;10.124;2023-06-14T07:42:47;96365.53;;;25.36
71640;BMP280;60912;48.968;10.124;2023-06-14T07:45:15;96363.28;;;25.78
71640;BMP280;60912;48.968;10.124;2023-06-14T07:47:41;96376.97;;;25.64
71640;BMP280;60912;48.968;10.124;2023-06-14T07:50:07;96368.19;;;25.99
71640;BMP280;60912;48.968;10.124;2023-06-14T07:52:32;96375.50;;;25.85
71640;BMP280;60912;48.968;10.124;2023-06-14T07:54:58;96371.31;;;25.64
71640;BMP280;60912;48.968;10.124;2023-06-14T07:57:23;96366.31;;;25.39
71640;BMP280;60912;48.968;10.124;2023-06-14T07:59:48;96371.47;;;25.47
71640;BMP280;60912;48.968;10.124;2023-06-14T08:02:14;96375.81;;;24.45
71640;BMP280;60912;48.968;10.124;2023-06-14T08:04:39;96376.03;;;24.12
71640;BMP280;60912;48.968;10.124;2023-06-14T08:07:05;96373.84;;;24.30
71640;BMP280;60912;48.968;10.124;2023-06-14T08:09:31;96370.81;;;24.44
71640;BMP280;60912;48.968;10.124;2023-06-14T08:11:56;96379.72;;;23.61
71640;BMP280;60912;48.968;10.124;2023-06-14T08:14:22;96374.16;;;23.46
71640;BMP280;60912;48.968;10.124;2023-06-14T08:16:47;96381.31;;;24.21
71640;BMP280;60912;48.968;10.124;2023-06-14T08:19:13;96379.44;;;24.67
71640;BMP280;60912;48.968;10.124;2023-06-14T08:21:38;96378.25;;;24.94
71640;BMP280;60912;48.968;10.124;2023-06-14T08:24:05;96377.69;;;24.78
71640;BMP280;60912;48.968;10.124;2023-06-14T08:26:30;96369.94;;;24.98
71640;BMP280;60912;48.968;10.124;2023-06-14T08:28:57;96376.47;;;25.26
71640;BMP280;60912;48.968;10.124;2023-06-14T08:31:23;96375.91;;;25.08
71640;BMP280;60912;48.968;10.124;2023-06-14T08:33:49;96365.25;;;24.85
71640;BMP280;60912;48.968;10.124;2023-06-14T08:36:14;96378.78;;;25.10
71640;BMP280;60912;48.968;10.124;2023-06-14T08:38:40;96368.16;;;25.30
71640;BMP280;60912;48.968;10.124;2023-06-14T08:41:06;96374.31;;;25.47
71640;BMP280;60912;48.968;10.124;2023-06-14T08:43:32;96379.50;;;25.11
71640;BMP280;60912;48.968;10.124;2023-06-14T08:46:03;96380.34;;;25.59
71640;BMP280;60912;48.968;10.124;2023-06-14T08:48:28;96380.56;;;25.21
71640;BMP280;60912;48.968;10.124;2023-06-14T08:50:56;96387.00;;;24.23
71640;BMP280;60912;48.968;10.124;2023-06-14T08:53:28;96381.44;;;24.65
71640;BMP280;60912;48.968;10.124;2023-06-14T08:55:54;96383.16;;;24.94
71640;BMP280;60912;48.968;10.124;2023-06-14T08:58:20;96389.38;;;24.51
71640;BMP280;60912;48.968;10.124;2023-06-14T09:00:49;96382.03;;;24.81
71640;BMP280;60912;48.968;10.124;2023-06-14T09:03:15;96388.22;;;24.97
71640;BMP280;60912;48.968;10.124;2023-06-14T09:05:40;96383.97;;;24.76
71640;BMP280;60912;48.968;10.124;2023-06-14T09:08:06;96387.00;;;25.46
71640;BMP280;60912;48.968;10.124;2023-06-14T09:10:32;96381.16;;;25.39
71640;BMP280;60912;48.968;10.124;2023-06-14T09:13:02;96375.41;;;26.06
71640;BMP280;60912;48.968;10.124;2023-06-14T09:15:28;96375.19;;;26.74
71640;BMP280;60912;48.968;10.124;2023-06-14T09:17:54;96383.19;;;26.83
71640;BMP280;60912;48.968;10.124;2023-06-14T09:20:20;96387.75;;;26.68
71640;BMP280;60912;48.968;10.124;2023-06-14T09:22:46;96386.16;;;26.61
71640;BMP280;60912;48.968;10.124;2023-06-14T09:25:11;96383.88;;;26.56
71640;BMP280;60912;48.968;10.124;2023-06-14T09:27:40;96389.19;;;26.69
71640;BMP280;60912;48.968;10.124;2023-06-14T09:30:09;96385.88;;;26.02
71640;BMP280;60912;48.968;10.124;2023-06-14T09:32:41;96393.16;;;26.09
71640;BMP280;60912;48.968;10.124;2023-06-14T09:35:07;96390.34;;;26.09
71640;BMP280;60912;48.968;10.124;2023-06-14T09:37:33;96385.59;;;26.41
71640;BMP280;60912;48.968;10.124;2023-06-14T09:39:59;96393.59;;;27.02
71640;BMP280;60912;48.968;10.124;2023-06-14T09:42:25;96385.72;;;26.99
71640;BMP280;60912;48.968;10.124;2023-06-14T09:44:52;96378.03;;;27.31
71640;BMP280;60912;48.968;10.124;2023-06-14T09:47:18;96391.66;;;27.39
71640;BMP280;60912;48.968;10.124;2023-06-14T09:49:44;96390.13;;;26.52
71640;BMP280;60912;48.968;10.124;2023-06-14T09:52:18;96390.31;;;27.12
71640;BMP280;60912;48.968;10.124;2023-06-14T09:54:45;96387.38;;;27.08
71640;BMP280;60912;48.968;10.124;2023-06-14T09:57:15;96391.13;;;26.89
71640;BMP280;60912;48.968;10.124;2023-06-14T09:59:45;96385.34;;;26.85
71640;BMP280;60912;48.968;10.124;2023-06-14T10:02:36;96396.97;;;26.43
71640;BMP280;60912;48.968;10.124;2023-06-14T10:05:06;96386.16;;;27.17
71640;BMP280;60912;48.968;10.124;2023-06-14T10:07:38;96379.41;;;27.60
71640;BMP280;60912;48.968;10.124;2023-06-14T10:10:05;96390.63;;;27.87
71640;BMP280;60912;48.968;10.124;2023-06-14T10:12:31;96384.47;;;27.65
71640;BMP280;60912;48.968;10.124;2023-06-14T10:14:57;96385.31;;;27.40
71640;BMP280;60912;48.968;10.124;2023-06-14T10:17:49;96388.19;;;27.42
71640;BMP280;60912;48.968;10.124;2023-06-14T10:23:01;96391.38;;;27.26
71640;BMP280;60912;48.968;10.124;2023-06-14T10:25:31;96387.09;;;27.25
71640;BMP280;60912;48.968;10.124;2023-06-14T10:28:17;96388.50;;;27.86
71640;BMP280;60912;48.968;10.124;2023-06-14T10:31:06;96392.41;;;28.05
71640;BMP280;60912;48.968;10.124;2023-06-14T10:33:33;96383.19;;;27.70
71640;BMP280;60912;48.968;10.124;2023-06-14T10:39:14;96384.63;;;27.71
71640;BMP280;60912;48.968;10.124;2023-06-14T10:41:40;96385.94;;;28.34
71640;BMP280;60912;48.968;10.124;2023-06-14T10:46:41;96372.38;;;29.10
71640;BMP280;60912;48.968;10.124;2023-06-14T10:49:11;96375.94;;;29.10
71640;BMP280;60912;48.968;10.124;2023-06-14T10:51:42;96380.47;;;29.27
71640;BMP280;60912;48.968;10.124;2023-06-14T10:54:13;96374.69;;;28.02
71640;BMP280;60912;48.968;10.124;2023-06-14T10:56:59;96368.09;;;28.27
71640;BMP280;60912;48.968;10.124;2023-06-14T10:59:24;96379.53;;;28.33
71640;BMP280;60912;48.968;10.124;2023-06-14T11:04:48;96375.09;;;28.24
71640;BMP280;60912;48.968;10.124;2023-06-14T11:07:44;96372.88;;;28.19
71640;BMP280;60912;48.968;10.124;2023-06-14T11:12:57;96370.13;;;27.57
71640;BMP280;60912;48.968;10.124;2023-06-14T11:15:32;96374.38;;;28.24
71640;BMP280;60912;48.968;10.124;2023-06-14T11:18:03;96376.31;;;28.49
71640;BMP280;60912;48.968;10.124;2023-06-14T11:20:30;96390.75;;;28.27
71640;BMP280;60912;48.968;10.124;2023-06-14T11:22:56;96375.84;;;29.04
71640;BMP280;60912;48.968;10.124;2023-06-14T11:25:21;96363.59;;;29.36
71640;BMP280;60912;48.968;10.124;2023-06-14T11:27:49;96378.13;;;28.72
71640;BMP280;60912;48.968;10.124;2023-06-14T11:30:14;96381.78;;;29.20
71640;BMP280;60912;48.968;10.124;2023-06-14T11:32:40;96371.56;;;29.47
71640;BMP280;60912;48.968;10.124;2023-06-14T11:35:06;96375.41;;;29.68
71640;BMP280;60912;48.968;10.124;2023-06-14T11:37:32;96372.72;;;28.86
71640;BMP280;60912;48.968;10.124;2023-06-14T11:40:02;96360.97;;;29.06
71640;BMP280;60912;48.968;10.124;2023-06-14T11:42:30;96361.97;;;29.24
71640;BMP280;60912;48.968;10.124;2023-06-14T11:44:55;96363.94;;;29.14
71640;BMP280;60912;48.968;10.124;2023-06-14T11:47:21;96366.63;;;28.62
71640;BMP280;60912;48.968;10.124;2023-06-14T11:49:47;96361.78;;;28.31
71640;BMP280;60912;48.968;10.124;2023-06-14T11:52:13;96368.66;;;27.86
71640;BMP280;60912;48.968;10.124;2023-06-14T11:54:38;96358.97;;;27.63
71640;BMP280;60912;48.968;10.124;2023-06-14T11:57:06;96355.44;;;26.76
71640;BMP280;60912;48.968;10.124;2023-06-14T11:59:32;96357.66;;;26.28
71640;BMP280;60912;48.968;10.124;2023-06-14T12:02:03;96349.22;;;25.80
71640;BMP280;60912;48.968;10.124;2023-06-14T12:04:29;96354.44;;;25.88
71640;BMP280;60912;48.968;10.124;2023-06-14T12:06:55;96351.41;;;26.05
71640;BMP280;60912;48.968;10.124;2023-06-14T12:09:22;96350.69;;;25.81
71640;BMP280;60912;48.968;10.124;2023-06-14T12:11:49;96356.91;;;25.78
71640;BMP280;60912;48.968;10.124;2023-06-14T12:14:15;96356.16;;;25.99
71640;BMP280;60912;48.968;10.124;2023-06-14T12:16:42;96359.34;;;26.11
71640;BMP280;60912;48.968;10.124;2023-06-14T12:19:09;96353.38;;;26.25
71640;BMP280;60912;48.968;10.124;2023-06-14T12:21:38;96361.34;;;26.32
71640;BMP280;60912;48.968;10.124;2023-06-14T12:24:06;96361.53;;;26.40
71640;BMP280;60912;48.968;10.124;2023-06-14T12:26:32;96359.81;;;26.55
71640;BMP280;60912;48.968;10.124;2023-06-14T12:28:58;96355.28;;;27.27
71640;BMP280;60912;48.968;10.124;2023-06-14T12:31:24;96359.25;;;27.77
71640;BMP280;60912;48.968;10.124;2023-06-14T12:33:49;96356.47;;;27.79
71640;BMP280;60912;48.968;10.124;2023-06-14T12:36:15;96360.03;;;28.14
71640;BMP280;60912;48.968;10.124;2023-06-14T12:38:42;96356.63;;;28.21
71640;BMP280;60912;48.968;10.124;2023-06-14T12:41:07;96350.44;;;27.31
71640;BMP280;60912;48.968;10.124;2023-06-14T12:43:33;96357.16;;;27.16
71640;BMP280;60912;48.968;10.124;2023-06-14T12:45:59;96358.06;;;26.67
71640;BMP280;60912;48.968;10.124;2023-06-14T12:48:25;96362.72;;;26.57
71640;BMP280;60912;48.968;10.124;2023-06-14T12:50:52;96363.00;;;26.16
71640;BMP280;60912;48.968;10.124;2023-06-14T12:53:18;96362.44;;;26.21
71640;BMP280;60912;48.968;10.124;2023-06-14T12:55:43;96363.09;;;26.45
71640;BMP280;60912;48.968;10.124;2023-06-14T12:58:09;96362.75;;;26.59
71640;BMP280;60912;48.968;10.124;2023-06-14T13:00:35;96373.50;;;26.64
71640;BMP280;60912;48.968;10.124;2023-06-14T13:03:00;96368.56;;;26.37
71640;BMP280;60912;48.968;10.124;2023-06-14T13:05:26;96361.13;;;26.52
71640;BMP280;60912;48.968;10.124;2023-06-14T13:07:51;96358.44;;;26.30
71640;BMP280;60912;48.968;10.124;2023-06-14T13:10:17;96361.13;;;26.24
71640;BMP280;60912;48.968;10.124;2023-06-14T13:12:42;96362.38;;;26.19
71640;BMP280;60912;48.968;10.124;2023-06-14T13:15:08;96366.56;;;25.92
71640;BMP280;60912;48.968;10.124;2023-06-14T13:17:35;96362.56;;;26.01
71640;BMP280;60912;48.968;10.124;2023-06-14T13:20:05;96362.44;;;26.21
71640;BMP280;60912;48.968;10.124;2023-06-14T13:22:30;96369.47;;;25.96
71640;BMP280;60912;48.968;10.124;2023-06-14T13:24:56;96362.69;;;25.82
71640;BMP280;60912;48.968;10.124;2023-06-14T13:27:21;96364.50;;;25.71
71640;BMP280;60912;48.968;10.124;2023-06-14T13:29:47;96360.81;;;25.90
71640;BMP280;60912;48.968;10.124;2023-06-14T13:32:12;96364.25;;;26.11
71640;BMP280;60912;48.968;10.124;2023-06-14T13:34:37;96364.03;;;26.02
71640;BMP280;60912;48.968;10.124;2023-06-14T13:37:03;96362.56;;;26.25
71640;BMP280;60912;48.968;10.124;2023-06-14T13:39:28;96367.19;;;25.91
71640;BMP280;60912;48.968;10.124;2023-06-14T13:41:53;96363.09;;;25.27
71640;BMP280;60912;48.968;10.124;2023-06-14T13:44:19;96367.72;;;25.40
71640;BMP280;60912;48.968;10.124;2023-06-14T13:46:46;96365.31;;;25.52
71640;BMP280;60912;48.968;10.124;2023-06-14T13:49:11;96369.22;;;25.65
71640;BMP280;60912;48.968;10.124;2023-06-14T13:51:38;96367.81;;;25.42
71640;BMP280;60912;48.968;10.124;2023-06-14T13:54:04;96364.63;;;25.08
71640;BMP280;60912;48.968;10.124;2023-06-14T13:56:29;96362.50;;;24.87
71640;BMP280;60912;48.968;10.124;2023-06-14T13:58:55;96369.19;;;25.41
71640;BMP280;60912;48.968;10.124;2023-06-14T14:01:21;96375.44;;;25.59
71640;BMP280;60912;48.968;10.124;2023-06-14T14:03:48;96369.13;;;25.39
71640;BMP280;60912;48.968;10.124;2023-06-14T14:06:15;96366.03;;;25.53
71640;BMP280;60912;48.968;10.124;2023-06-14T14:08:41;96359.75;;;25.78
71640;BMP280;60912;48.968;10.124;2023-06-14T14:11:07;96362.94;;;25.66